Time;durP1;ratioP1;P1;durP2;ratioP2;P2;SDS_P1;SDS_P2;PMS_P1;PMS_P2;Temp;Humidity;BMP_temperature;BMP_pressure;BME280_temperature;BME280_humidity;BME280_pressure;Samples;Min_cycle;Max_cycle;Signal;HPM_P1;HPM_P2
2022/12/26 00:01:57;;;;;;;15.65;9.73;;;10.70;78.30;;;;;;2374455;56;21607;-50
2022/12/26 00:04:24;;;;;;;15.70;8.90;;;10.70;78.40;;;;;;2374144;56;21047;-50
2022/12/26 00:06:51;;;;;;;16.80;9.68;;;10.70;78.50;;;;;;2373754;56;21055;-49
2022/12/26 00:09:18;;;;;;;14.15;7.65;;;10.70;79.20;;;;;;2372998;56;21054;-47
2022/12/26 00:11:45;;;;;;;19.30;10.38;;;10.60;78.40;;;;;;2374148;56;21039;-45
2022/12/26 00:14:14;;;;;;;18.25;9.55;;;10.60;78.00;;;;;;2374282;56;21043;-50
2022/12/26 00:16:43;;;;;;;23.80;11.45;;;10.60;78.50;;;;;;2375871;56;21571;-48
2022/12/26 00:19:11;;;;;;;23.87;13.13;;;10.60;78.60;;;;;;2375300;56;21070;-45
2022/12/26 00:21:38;;;;;;;25.75;14.80;;;10.60;78.70;;;;;;2375617;56;21562;-47
2022/12/26 00:24:08;;;;;;;22.95;12.75;;;10.60;78.70;;;;;;2374298;56;21046;-48
2022/12/26 00:26:35;;;;;;;17.85;10.35;;;10.60;78.60;;;;;;2627047;52;21561;-47
2022/12/26 00:29:03;;;;;;;20.92;10.77;;;10.60;78.60;;;;;;2374129;56;21630;-50
2022/12/26 00:31:32;;;;;;;21.75;9.40;;;10.60;78.60;;;;;;2374115;56;21118;-50
2022/12/26 00:33:59;;;;;;;14.65;7.85;;;10.60;78.50;;;;;;2373341;56;21614;-49
2022/12/26 00:36:29;;;;;;;18.65;8.63;;;10.60;78.50;;;;;;2373763;56;21621;-49
2022/12/26 00:38:57;;;;;;;15.18;8.25;;;10.60;78.50;;;;;;2373898;56;21015;-49
2022/12/26 00:41:25;;;;;;;24.15;11.95;;;10.60;78.60;;;;;;2373950;56;21693;-47
2022/12/26 00:43:52;;;;;;;16.92;9.05;;;10.50;78.60;;;;;;2373253;56;21043;-47
2022/12/26 00:46:20;;;;;;;11.48;6.72;;;10.50;78.70;;;;;;2373255;56;21047;-48
2022/12/26 00:48:47;;;;;;;11.27;6.43;;;10.50;78.90;;;;;;2373225;56;21046;-48
2022/12/26 00:51:14;;;;;;;14.00;6.68;;;10.50;79.00;;;;;;2373161;56;21035;-48
2022/12/26 00:53:42;;;;;;;11.98;6.03;;;10.50;79.10;;;;;;2373477;56;21539;-48
2022/12/26 00:56:09;;;;;;;15.50;6.25;;;10.60;79.10;;;;;;2373589;56;22201;-46
2022/12/26 00:58:37;;;;;;;16.67;6.95;;;10.50;79.00;;;;;;2372669;56;21766;-47
2022/12/26 01:03:46;;;;;;;21.48;7.12;;;10.50;78.90;;;;;;2355554;57;22505;-46
2022/12/26 01:06:14;;;;;;;15.02;7.45;;;10.50;78.80;;;;;;2348256;57;21510;-47
2022/12/26 01:08:42;;;;;;;13.88;6.12;;;10.50;78.80;;;;;;2364438;56;21574;-46
2022/12/26 01:11:11;;;;;;;14.05;6.72;;;10.50;78.90;;;;;;2375840;56;21097;-48
2022/12/26 01:13:39;;;;;;;14.13;7.70;;;10.50;78.80;;;;;;2374998;56;21059;-49
2022/12/26 01:16:07;;;;;;;13.32;7.30;;;10.50;78.80;;;;;;2373364;56;21484;-46
2022/12/26 01:18:35;;;;;;;11.90;6.95;;;10.50;78.80;;;;;;2373735;56;21086;-45
2022/12/26 01:21:06;;;;;;;16.05;7.78;;;10.50;78.80;;;;;;2628280;52;21099;-45
2022/12/26 01:23:33;;;;;;;17.33;7.60;;;10.50;78.80;;;;;;2374388;56;21109;-48
2022/12/26 01:26:10;;;;;;;11.40;6.70;;;10.50;78.80;;;;;;2374240;56;21094;-50
2022/12/26 01:28:37;;;;;;;13.18;7.15;;;10.50;78.70;;;;;;2375028;56;21031;-48
2022/12/26 01:31:05;;;;;;;13.70;6.85;;;10.50;78.70;;;;;;2375054;56;21047;-47
2022/12/26 01:33:33;;;;;;;14.48;7.25;;;10.50;78.80;;;;;;2374526;56;21518;-48
2022/12/26 01:36:00;;;;;;;12.13;6.65;;;10.50;79.00;;;;;;2373442;56;21043;-51
2022/12/26 01:38:28;;;;;;;22.52;7.07;;;10.50;79.10;;;;;;2374276;56;21091;-46
2022/12/26 01:43:50;;;;;;;14.15;7.00;;;10.50;79.10;;;;;;2627587;52;21022;-47
2022/12/26 01:46:21;;;;;;;16.20;8.15;;;10.50;79.20;;;;;;2628036;52;21039;-48
2022/12/26 01:48:49;;;;;;;12.43;6.28;;;10.50;79.20;;;;;;2374301;56;21110;-47
2022/12/26 01:51:20;;;;;;;10.30;6.05;;;10.50;79.40;;;;;;2375077;56;21579;-47
2022/12/26 01:53:51;;;;;;;17.50;6.90;;;10.40;79.50;;;;;;2375505;56;21058;-47
2022/12/26 01:56:23;;;;;;;15.27;7.30;;;10.40;79.60;;;;;;2375682;56;21586;-48
2022/12/26 01:58:55;;;;;;;11.88;6.75;;;10.50;79.60;;;;;;2375928;56;21107;-46
2022/12/26 02:01:27;;;;;;;13.57;6.60;;;10.40;79.60;;;;;;2375698;56;21434;-48
2022/12/26 02:06:42;;;;;;;12.00;6.18;;;10.50;79.70;;;;;;2532486;52;21089;-47
2022/12/26 02:09:10;;;;;;;12.90;6.40;;;10.50;79.70;;;;;;2373918;56;21051;-49
2022/12/26 02:11:41;;;;;;;11.10;6.80;;;10.40;79.80;;;;;;2374881;56;21034;-46
2022/12/26 02:14:09;;;;;;;20.45;6.80;;;10.40;80.00;;;;;;2373494;56;22166;-47
2022/12/26 02:16:39;;;;;;;9.90;6.00;;;10.50;80.10;;;;;;2373742;56;21055;-49
2022/12/26 02:19:15;;;;;;;14.48;6.97;;;10.40;80.00;;;;;;2374013;56;21078;-44
2022/12/26 02:22:10;;;;;;;12.48;6.22;;;10.50;80.10;;;;;;2373186;56;21566;-48
2022/12/26 02:25:27;;;;;;;20.55;6.22;;;10.50;80.20;;;;;;2373352;56;21566;-51
2022/12/26 02:28:20;;;;;;;14.20;5.50;;;10.50;80.10;;;;;;2373257;56;21086;-50
2022/12/26 02:31:03;;;;;;;19.65;5.55;;;10.40;80.00;;;;;;2373712;56;21641;-47
2022/12/26 02:33:43;;;;;;;15.87;5.47;;;10.40;80.80;;;;;;2373505;56;21055;-51
2022/12/26 02:36:23;;;;;;;8.73;5.97;;;10.40;80.20;;;;;;2372562;56;21554;-46
2022/12/26 02:39:03;;;;;;;12.98;6.70;;;10.30;80.30;;;;;;2373025;56;21058;-47
2022/12/26 02:41:42;;;;;;;15.18;5.95;;;10.30;80.40;;;;;;2373543;56;21614;-49
2022/12/26 02:47:13;;;;;;;9.20;5.40;;;10.30;80.70;;;;;;2628264;52;20967;-51
2022/12/26 03:17:18;;;;;;;19.50;6.45;;;10.30;80.90;;;;;;2335048;57;28267;-45
2022/12/26 03:19:59;;;;;;;9.32;4.30;;;10.20;83.70;;;;;;2360804;54;21165;-49
2022/12/26 03:22:32;;;;;;;15.57;5.90;;;10.40;82.10;;;;;;2265082;59;21142;-51
2022/12/26 03:27:47;;;;;;;13.00;5.20;;;10.50;81.30;;;;;;2265493;59;21050;-50
2022/12/26 03:33:00;;;;;;;9.00;4.72;;;10.40;81.10;;;;;;2290856;58;21020;-48
2022/12/26 03:35:31;;;;;;;9.98;5.12;;;10.40;81.20;;;;;;2293399;58;21746;-47
2022/12/26 03:38:03;;;;;;;11.25;5.60;;;10.40;81.30;;;;;;2293219;58;21047;-47
2022/12/26 04:44:08;;;;;;;23.75;9.13;;;10.50;81.70;;;;;;2346171;57;21006;-49
2022/12/26 04:46:39;;;;;;;19.55;7.57;;;10.60;81.60;;;;;;2346545;57;22144;-51
2022/12/26 04:51:57;;;;;;;28.48;9.27;;;10.50;81.70;;;;;;2346005;57;21079;-51
2022/12/26 04:54:24;;;;;;;23.20;9.00;;;10.60;81.70;;;;;;2346008;57;21053;-52
2022/12/26 04:56:51;;;;;;;20.77;8.57;;;10.60;81.70;;;;;;2345967;57;21643;-52
2022/12/26 04:59:19;;;;;;;17.92;8.82;;;10.60;81.70;;;;;;2344588;57;21597;-49
2022/12/26 05:10:11;;;;;;;19.75;9.48;;;10.60;81.60;;;;;;2345561;57;21081;-54
2022/12/26 05:12:38;;;;;;;20.48;9.57;;;10.60;81.60;;;;;;2347874;57;21414;-49
2022/12/26 05:15:07;;;;;;;16.70;7.53;;;10.60;81.70;;;;;;2346980;57;21065;-51
2022/12/26 05:28:41;;;;;;;15.38;8.45;;;10.60;81.50;;;;;;2345910;57;21081;-49
2022/12/26 05:31:09;;;;;;;25.62;9.38;;;10.60;81.60;;;;;;2345838;57;21065;-52
2022/12/26 05:36:24;;;;;;;22.23;10.23;;;10.60;81.80;;;;;;2346048;57;20997;-47
2022/12/26 05:38:51;;;;;;;24.63;11.43;;;10.60;81.80;;;;;;2345443;57;22225;-50
2022/12/26 05:41:19;;;;;;;23.67;9.57;;;10.60;81.90;;;;;;2345245;57;21105;-48
2022/12/26 05:43:46;;;;;;;28.35;9.65;;;10.60;81.90;;;;;;2344272;57;21022;-46
2022/12/26 05:46:13;;;;;;;19.70;9.50;;;10.70;82.00;;;;;;2344734;57;21054;-51
2022/12/26 05:48:40;;;;;;;20.60;10.00;;;10.70;81.90;;;;;;2345769;57;21573;-51
2022/12/26 05:51:07;;;;;;;22.27;9.75;;;10.70;81.90;;;;;;2344504;57;21605;-49
2022/12/26 05:53:35;;;;;;;16.55;9.02;;;10.70;81.80;;;;;;2344317;57;21125;-46
2022/12/26 05:56:08;;;;;;;21.55;9.18;;;10.70;81.80;;;;;;2346147;57;21101;-49
2022/12/26 05:58:35;;;;;;;25.75;9.27;;;10.70;81.70;;;;;;2346341;57;21068;-50
2022/12/26 06:01:09;;;;;;;20.88;9.70;;;10.70;81.80;;;;;;2344923;57;21037;-48
2022/12/26 06:03:37;;;;;;;21.25;9.35;;;10.70;81.90;;;;;;2346872;57;21089;-47
2022/12/26 06:06:06;;;;;;;20.98;9.15;;;10.80;81.90;;;;;;2347399;57;21041;-49
2022/12/26 06:08:33;;;;;;;20.92;9.45;;;10.70;81.90;;;;;;2347309;57;21093;-46
2022/12/26 06:11:04;;;;;;;22.30;11.55;;;10.80;81.90;;;;;;2346083;57;21065;-46
2022/12/26 06:13:31;;;;;;;20.15;10.18;;;10.80;81.90;;;;;;2346844;57;21057;-46
2022/12/26 06:15:58;;;;;;;21.30;10.50;;;10.80;81.80;;;;;;2345867;57;21050;-56
2022/12/26 06:18:26;;;;;;;24.58;11.02;;;10.80;81.70;;;;;;2346186;57;21025;-50
2022/12/26 06:20:53;;;;;;;26.77;11.35;;;10.80;81.80;;;;;;2345925;57;21601;-47
2022/12/26 06:23:20;;;;;;;22.02;11.20;;;10.80;81.90;;;;;;2346216;57;21030;-51
2022/12/26 06:25:54;;;;;;;21.48;10.82;;;10.80;81.90;;;;;;2346196;57;21049;-49
2022/12/26 06:28:22;;;;;;;24.25;10.38;;;10.80;82.10;;;;;;2345069;57;21041;-49
2022/12/26 06:30:49;;;;;;;24.17;11.85;;;10.80;82.20;;;;;;2346332;57;21581;-45
2022/12/26 06:33:17;;;;;;;19.15;9.95;;;10.80;82.00;;;;;;2346725;57;21097;-50
2022/12/26 06:35:44;;;;;;;22.08;10.18;;;10.80;82.20;;;;;;2345323;57;21548;-48
2022/12/26 06:38:11;;;;;;;21.02;9.80;;;10.70;82.10;;;;;;2345967;57;22111;-48
2022/12/26 06:40:39;;;;;;;23.42;11.45;;;10.80;82.10;;;;;;2346168;57;21581;-48
2022/12/26 06:43:07;;;;;;;22.70;11.60;;;10.80;82.00;;;;;;2346198;57;21045;-45
2022/12/26 06:45:34;;;;;;;24.02;11.80;;;10.80;81.90;;;;;;2345529;57;21137;-45
2022/12/26 06:48:02;;;;;;;22.00;11.05;;;10.80;82.00;;;;;;2345986;57;21065;-47
2022/12/26 06:50:29;;;;;;;25.33;12.45;;;10.80;82.20;;;;;;2345849;57;21034;-47
2022/12/26 06:52:56;;;;;;;26.12;10.48;;;10.80;82.20;;;;;;2345037;57;21038;-49
2022/12/26 06:55:23;;;;;;;25.58;12.60;;;10.80;82.10;;;;;;2346087;57;21049;-48
2022/12/26 06:57:52;;;;;;;30.75;12.50;;;10.80;82.10;;;;;;2345972;57;21624;-48
2022/12/26 07:00:19;;;;;;;27.62;12.18;;;10.80;82.40;;;;;;2345751;57;21058;-48
2022/12/26 07:02:51;;;;;;;28.23;12.93;;;10.80;82.50;;;;;;2346053;57;21050;-46
2022/12/26 07:05:18;;;;;;;35.92;13.10;;;10.80;82.30;;;;;;2346193;57;21053;-48
2022/12/26 07:07:50;;;;;;;26.62;12.23;;;10.80;82.50;;;;;;2345442;57;21086;-45
2022/12/26 07:10:18;;;;;;;29.00;13.00;;;10.80;82.40;;;;;;2345720;57;21034;-49
2022/12/26 07:12:45;;;;;;;32.70;12.32;;;10.80;82.40;;;;;;2346182;57;21062;-48
2022/12/26 07:15:12;;;;;;;26.50;12.90;;;10.80;82.50;;;;;;2346261;57;21095;-48
2022/12/26 07:17:40;;;;;;;31.00;13.18;;;10.80;82.50;;;;;;2345821;57;21601;-50
2022/12/26 07:20:10;;;;;;;24.90;12.23;;;10.80;82.50;;;;;;2346558;57;21105;-48
2022/12/26 07:22:37;;;;;;;25.58;12.75;;;10.80;82.50;;;;;;2346692;57;21141;-47
2022/12/26 07:27:40;;;;;;;26.33;12.88;;;10.80;82.50;;;;;;2328487;57;20369;-50
2022/12/26 07:30:10;;;;;;;26.48;12.27;;;10.90;82.80;;;;;;2346432;57;21097;-51
2022/12/26 07:32:37;;;;;;;21.83;10.75;;;10.90;82.70;;;;;;2347091;57;21506;-52
2022/12/26 07:35:06;;;;;;;23.95;11.52;;;10.90;82.60;;;;;;2347082;57;21051;-50
2022/12/26 07:37:33;;;;;;;28.80;11.52;;;10.90;82.60;;;;;;2347208;57;21141;-51
2022/12/26 07:40:00;;;;;;;21.58;10.82;;;10.90;82.80;;;;;;2347149;57;21065;-54
2022/12/26 07:42:27;;;;;;;22.13;11.40;;;10.90;82.80;;;;;;2346114;57;21069;-50
2022/12/26 07:44:55;;;;;;;23.33;12.07;;;10.90;82.80;;;;;;2346684;57;21053;-50
2022/12/26 07:47:22;;;;;;;22.10;11.32;;;10.90;83.00;;;;;;2347043;57;21553;-50
2022/12/26 07:49:49;;;;;;;23.48;11.10;;;10.90;83.00;;;;;;2346597;57;21050;-54
2022/12/26 07:52:17;;;;;;;24.67;12.73;;;10.90;82.90;;;;;;2346799;57;21125;-51
2022/12/26 07:54:44;;;;;;;23.98;11.35;;;10.90;83.00;;;;;;2347231;57;21386;-48
2022/12/26 07:57:11;;;;;;;26.77;12.57;;;10.90;83.10;;;;;;2593717;53;21597;-54
2022/12/26 07:59:38;;;;;;;25.23;13.13;;;10.90;83.10;;;;;;2345967;57;21117;-53
2022/12/26 08:02:07;;;;;;;21.87;12.00;;;10.90;83.30;;;;;;2346905;57;21109;-53
2022/12/26 08:04:35;;;;;;;20.12;12.23;;;10.90;83.40;;;;;;2347271;57;21589;-51
2022/12/26 08:07:02;;;;;;;22.70;12.88;;;10.90;83.40;;;;;;2346166;57;21034;-52
2022/12/26 08:09:29;;;;;;;22.27;12.77;;;10.90;83.40;;;;;;2346849;57;21121;-52
2022/12/26 08:11:56;;;;;;;22.83;13.50;;;10.90;83.50;;;;;;2347335;57;21049;-49
2022/12/26 08:14:23;;;;;;;22.27;13.32;;;10.90;83.40;;;;;;2345904;57;21109;-49
2022/12/26 08:16:50;;;;;;;23.90;13.27;;;11.00;83.40;;;;;;2347117;57;21046;-54
2022/12/26 08:19:17;;;;;;;24.70;14.55;;;11.00;83.50;;;;;;2593652;53;22067;-51
2022/12/26 08:21:45;;;;;;;26.52;14.52;;;11.00;83.50;;;;;;2346131;57;21097;-53
2022/12/26 08:24:13;;;;;;;25.20;14.15;;;11.10;83.20;;;;;;2345515;57;21049;-48
2022/12/26 08:26:41;;;;;;;23.65;13.32;;;11.10;83.00;;;;;;2345809;57;21166;-47
2022/12/26 08:29:10;;;;;;;21.23;12.07;;;11.10;83.00;;;;;;2593675;53;21037;-51
2022/12/26 08:31:37;;;;;;;24.80;13.32;;;11.10;82.80;;;;;;2345130;57;21061;-51
2022/12/26 08:34:04;;;;;;;25.62;15.00;;;11.10;82.80;;;;;;2346314;57;21593;-50
2022/12/26 08:36:31;;;;;;;24.55;13.32;;;11.10;82.80;;;;;;2346778;57;21041;-50
2022/12/26 08:38:58;;;;;;;23.60;13.88;;;11.10;83.00;;;;;;2344827;57;21034;-52
2022/12/26 08:41:25;;;;;;;28.15;15.50;;;11.10;83.00;;;;;;2344940;57;21680;-49
2022/12/26 08:43:53;;;;;;;27.13;14.90;;;11.10;83.90;;;;;;2345318;57;21025;-51
2022/12/26 08:46:21;;;;;;;29.27;15.48;;;11.10;83.30;;;;;;2345142;57;21054;-52
2022/12/26 08:48:49;;;;;;;25.10;15.18;;;11.10;83.00;;;;;;2344814;57;21553;-53
2022/12/26 08:51:19;;;;;;;27.67;15.73;;;11.10;83.00;;;;;;2345491;57;21667;-53
2022/12/26 08:53:48;;;;;;;29.08;16.80;;;11.10;83.20;;;;;;2345104;57;22171;-51
2022/12/26 08:56:17;;;;;;;27.13;14.75;;;11.10;83.20;;;;;;2345768;57;21022;-48
2022/12/26 08:58:45;;;;;;;32.53;17.33;;;11.20;83.20;;;;;;2345376;57;21046;-48
2022/12/26 09:01:14;;;;;;;29.52;17.52;;;11.20;83.30;;;;;;2345571;57;21517;-51
2022/12/26 09:03:42;;;;;;;33.38;17.00;;;11.20;83.20;;;;;;2345812;57;21510;-51
2022/12/26 09:06:10;;;;;;;27.52;15.85;;;11.20;83.10;;;;;;2345374;57;21053;-51
2022/12/26 09:08:38;;;;;;;28.35;17.08;;;11.20;83.10;;;;;;2345586;57;21521;-52
2022/12/26 09:11:07;;;;;;;26.73;15.75;;;11.20;83.30;;;;;;2344848;57;21664;-54
2022/12/26 09:13:36;;;;;;;34.28;16.87;;;11.20;83.20;;;;;;2345413;57;21651;-53
2022/12/26 09:16:09;;;;;;;29.05;15.55;;;11.20;83.10;;;;;;2345588;57;21856;-49
2022/12/26 09:18:37;;;;;;;28.33;16.08;;;11.20;82.90;;;;;;2344330;57;21184;-51
2022/12/26 09:21:07;;;;;;;32.20;17.48;;;11.30;82.80;;;;;;2484442;52;21068;-51
2022/12/26 09:23:35;;;;;;;26.77;15.30;;;11.20;82.70;;;;;;2345414;57;21583;-55
2022/12/26 09:26:07;;;;;;;28.15;16.65;;;11.30;82.80;;;;;;2347297;57;21614;-57
2022/12/26 09:28:35;;;;;;;26.83;14.93;;;11.30;82.70;;;;;;2347455;57;21858;-55
2022/12/26 09:31:03;;;;;;;30.10;16.95;;;11.30;82.70;;;;;;2346545;57;21012;-54
2022/12/26 09:33:32;;;;;;;35.80;18.15;;;11.40;82.80;;;;;;2346602;57;21033;-55
2022/12/26 09:35:59;;;;;;;29.35;16.77;;;11.30;82.80;;;;;;2344203;57;22483;-57
2022/12/26 09:38:27;;;;;;;28.55;17.90;;;11.30;82.80;;;;;;2344467;57;21040;-55
2022/12/26 09:41:06;;;;;;;29.02;16.20;;;11.30;82.80;;;;;;2345767;57;21516;-55
2022/12/26 09:43:52;;;;;;;31.25;17.00;;;11.30;82.80;;;;;;2345108;57;21548;-58
2022/12/26 09:46:28;;;;;;;34.95;17.00;;;11.30;82.90;;;;;;2345246;57;21516;-57
2022/12/26 09:49:00;;;;;;;33.03;17.05;;;11.30;82.80;;;;;;2344833;57;21535;-55
2022/12/26 09:51:29;;;;;;;37.30;18.80;;;11.30;82.70;;;;;;2344182;57;22127;-57
2022/12/26 09:53:57;;;;;;;33.58;18.77;;;11.30;82.50;;;;;;2344235;57;21571;-54
2022/12/26 09:56:26;;;;;;;30.90;17.52;;;11.30;82.70;;;;;;2344195;57;21633;-51
2022/12/26 09:58:57;;;;;;;32.10;17.50;;;11.30;82.80;;;;;;2355468;53;21104;-52
2022/12/26 10:01:27;;;;;;;38.50;18.98;;;11.30;82.70;;;;;;2345003;57;21037;-51
2022/12/26 10:03:56;;;;;;;34.67;19.42;;;11.30;82.80;;;;;;2384972;53;21472;-53
2022/12/26 10:06:25;;;;;;;36.60;19.50;;;11.30;83.60;;;;;;2342481;57;21048;-49
2022/12/26 10:12:08;;;;;;;30.65;17.40;;;11.40;82.80;;;;;;2353406;57;22137;-53
2022/12/26 10:14:47;;;;;;;31.17;18.02;;;11.40;82.70;;;;;;2345042;57;21101;-53
2022/12/26 10:17:22;;;;;;;28.67;16.87;;;11.30;82.80;;;;;;2346380;57;21494;-47
2022/12/26 10:20:05;;;;;;;27.27;15.40;;;11.40;83.00;;;;;;2345600;57;21018;-51
2022/12/26 10:23:01;;;;;;;25.80;14.98;;;11.40;82.70;;;;;;2346197;57;22120;-48
2022/12/26 10:25:37;;;;;;;30.08;17.15;;;11.40;82.40;;;;;;2345260;57;21518;-52
2022/12/26 10:28:09;;;;;;;27.95;15.82;;;11.40;82.70;;;;;;2343353;57;21018;-50
2022/12/26 10:30:40;;;;;;;30.52;16.67;;;11.30;82.80;;;;;;2343329;57;21564;-52
2022/12/26 10:33:12;;;;;;;26.62;15.48;;;11.30;82.90;;;;;;2361312;53;22046;-52
2022/12/26 10:35:42;;;;;;;27.27;15.00;;;11.30;83.00;;;;;;2351931;53;21102;-55
2022/12/26 10:38:14;;;;;;;30.45;16.15;;;11.30;82.80;;;;;;2343626;57;21070;-49
2022/12/26 10:40:46;;;;;;;20.73;13.93;;;11.30;82.70;;;;;;2344336;57;21912;-53
2022/12/26 10:43:25;;;;;;;26.62;14.65;;;11.30;82.70;;;;;;2344608;57;21612;-50
2022/12/26 10:46:04;;;;;;;27.48;14.38;;;11.30;82.80;;;;;;2357186;53;21395;-55
2022/12/26 10:48:32;;;;;;;29.15;14.65;;;11.30;82.70;;;;;;2344313;57;21509;-54
2022/12/26 10:50:59;;;;;;;26.50;13.93;;;11.40;82.80;;;;;;2344885;57;21698;-57
2022/12/26 10:53:26;;;;;;;23.40;13.07;;;11.40;82.60;;;;;;2351425;53;21058;-58
2022/12/26 10:55:53;;;;;;;25.77;15.10;;;11.40;82.70;;;;;;2345118;57;21046;-56
2022/12/26 10:58:25;;;;;;;26.75;14.87;;;11.40;82.50;;;;;;2344224;57;21049;-52
2022/12/26 11:00:52;;;;;;;24.80;13.32;;;11.40;82.80;;;;;;2344070;57;21041;-57
2022/12/26 11:03:20;;;;;;;25.92;14.80;;;11.40;82.90;;;;;;2342405;57;21138;-48
2022/12/26 11:05:50;;;;;;;26.65;15.25;;;11.50;82.60;;;;;;2343772;57;21046;-51
2022/12/26 11:08:21;;;;;;;24.92;14.55;;;11.50;82.70;;;;;;2448326;53;21505;-53
2022/12/26 11:11:04;;;;;;;23.55;13.32;;;11.50;82.90;;;;;;2345965;57;21161;-53
2022/12/26 11:13:34;;;;;;;27.25;13.27;;;11.50;82.80;;;;;;2346031;57;21010;-50
2022/12/26 11:16:02;;;;;;;27.35;15.27;;;11.50;82.70;;;;;;2346489;57;21098;-52
2022/12/26 11:18:35;;;;;;;25.48;13.62;;;11.50;82.80;;;;;;2345331;57;21514;-50
2022/12/26 11:21:18;;;;;;;21.87;13.52;;;11.60;82.80;;;;;;2345822;57;21050;-54
2022/12/26 11:23:47;;;;;;;23.65;14.13;;;11.50;82.40;;;;;;2344824;57;21125;-51
2022/12/26 11:26:21;;;;;;;24.15;12.37;;;11.50;82.20;;;;;;2344739;57;21565;-50
2022/12/26 11:29:03;;;;;;;23.77;12.27;;;11.60;82.20;;;;;;2343667;57;21529;-51
2022/12/26 11:31:31;;;;;;;26.05;13.27;;;11.60;82.00;;;;;;2344307;57;21518;-50
2022/12/26 11:34:01;;;;;;;23.17;12.18;;;11.60;81.90;;;;;;2344792;57;21034;-51
2022/12/26 11:36:29;;;;;;;22.23;11.75;;;11.60;82.10;;;;;;2344544;57;21514;-52
2022/12/26 11:38:59;;;;;;;24.48;11.98;;;11.60;81.90;;;;;;2345385;57;21569;-55
2022/12/26 11:41:38;;;;;;;22.77;11.50;;;11.60;81.40;;;;;;2345200;57;21578;-49
2022/12/26 11:44:18;;;;;;;21.62;11.35;;;11.60;81.30;;;;;;2344832;57;21045;-52
2022/12/26 11:46:50;;;;;;;19.98;11.20;;;11.60;81.30;;;;;;2344540;57;21065;-54
2022/12/26 11:49:31;;;;;;;21.05;11.80;;;11.60;81.40;;;;;;2344748;57;21109;-54
2022/12/26 11:52:00;;;;;;;22.35;12.80;;;11.50;81.50;;;;;;2344929;57;21050;-50
2022/12/26 11:54:32;;;;;;;23.58;11.48;;;11.60;81.20;;;;;;2344547;57;21026;-55
2022/12/26 11:57:20;;;;;;;21.02;12.48;;;11.60;81.20;;;;;;2345788;57;21542;-54
2022/12/26 11:59:50;;;;;;;19.67;11.70;;;11.70;81.30;;;;;;2346014;57;21569;-50
2022/12/26 12:02:29;;;;;;;21.52;12.27;;;11.60;80.90;;;;;;2345539;57;21022;-52
2022/12/26 12:04:59;;;;;;;24.20;12.13;;;11.60;80.90;;;;;;2345214;57;21022;-50
2022/12/26 12:07:55;;;;;;;17.15;10.60;;;11.60;80.80;;;;;;2345878;57;21569;-50
2022/12/26 12:10:46;;;;;;;18.37;9.88;;;11.60;81.00;;;;;;2344804;57;21129;-52
2022/12/26 12:13:29;;;;;;;18.55;9.18;;;11.60;81.10;;;;;;2344599;57;21047;-50
2022/12/26 12:16:05;;;;;;;16.98;10.10;;;11.60;80.80;;;;;;2343545;57;21647;-51
2022/12/26 12:18:50;;;;;;;17.10;10.40;;;11.60;80.70;;;;;;2344540;57;21652;-53
2022/12/26 12:21:26;;;;;;;19.33;10.70;;;11.60;80.90;;;;;;2344389;57;21541;-51
2022/12/26 12:24:14;;;;;;;16.42;9.68;;;11.60;80.80;;;;;;2344632;57;21505;-52
2022/12/26 12:26:50;;;;;;;16.25;10.10;;;11.60;80.90;;;;;;2345197;57;21569;-50
2022/12/26 12:29:31;;;;;;;18.05;10.98;;;11.60;80.90;;;;;;2344455;57;21475;-54
2022/12/26 12:32:08;;;;;;;16.20;9.98;;;11.60;80.90;;;;;;2540230;53;21116;-53
2022/12/26 12:35:09;;;;;;;17.90;9.65;;;11.70;80.80;;;;;;2344641;57;21566;-52
2022/12/26 12:37:55;;;;;;;18.20;10.48;;;11.70;80.30;;;;;;2338624;57;21641;-52
2022/12/26 12:40:31;;;;;;;15.55;9.32;;;11.70;80.40;;;;;;2344447;57;21589;-52
2022/12/26 12:43:08;;;;;;;15.40;8.98;;;11.70;80.60;;;;;;2344535;57;21613;-55
2022/12/26 12:45:43;;;;;;;16.05;8.90;;;11.70;80.70;;;;;;2345720;57;21010;-51
2022/12/26 12:51:22;;;;;;;16.02;8.65;;;11.60;81.00;;;;;;2335870;57;22110;-54
2022/12/26 12:54:09;;;;;;;16.80;9.48;;;11.60;81.10;;;;;;2348408;57;21494;-54
2022/12/26 12:56:44;;;;;;;14.87;8.52;;;11.60;81.20;;;;;;2348106;57;21076;-52
2022/12/26 12:59:25;;;;;;;14.93;9.00;;;11.50;81.10;;;;;;2348025;57;21108;-51
2022/12/26 13:01:56;;;;;;;17.00;9.75;;;11.50;81.30;;;;;;2557697;52;21121;-53
2022/12/26 13:04:28;;;;;;;20.25;9.75;;;11.50;81.50;;;;;;2346362;57;21596;-53
2022/12/26 13:06:58;;;;;;;16.92;8.25;;;11.50;81.70;;;;;;2346406;57;21553;-52
2022/12/26 13:09:29;;;;;;;14.13;8.60;;;11.50;81.70;;;;;;2347059;57;21624;-51
2022/12/26 13:12:00;;;;;;;13.90;8.77;;;11.50;81.80;;;;;;2347029;57;22180;-51
2022/12/26 13:14:34;;;;;;;14.68;8.32;;;11.50;81.80;;;;;;2347625;57;21498;-52
2022/12/26 13:17:05;;;;;;;16.00;8.65;;;11.60;81.70;;;;;;2347057;57;21533;-52
2022/12/26 13:22:26;;;;;;;11.68;7.20;;;11.60;81.20;;;;;;2354776;57;22037;-48
2022/12/26 13:24:59;;;;;;;13.77;7.47;;;11.60;81.00;;;;;;2346746;57;21525;-52
2022/12/26 13:27:29;;;;;;;13.95;8.27;;;11.60;81.20;;;;;;2397114;53;21530;-53
2022/12/26 13:29:57;;;;;;;14.38;7.03;;;11.60;81.10;;;;;;2351104;56;21054;-49
2022/12/26 13:32:26;;;;;;;15.32;7.32;;;11.60;81.20;;;;;;2374109;56;21055;-50
2022/12/26 13:34:57;;;;;;;9.05;5.40;;;11.60;81.90;;;;;;2372896;56;21700;-53
2022/12/26 13:37:53;;;;;;;7.53;5.43;;;11.60;80.60;;;;;;2416686;52;21046;-51
2022/12/26 13:40:23;;;;;;;9.13;4.87;;;11.60;80.60;;;;;;2375196;56;21150;-51
2022/12/26 13:45:49;;;;;;;8.93;3.42;;;11.60;78.80;;;;;;2629188;52;20907;-54
2022/12/26 13:48:54;;;;;;;6.37;2.67;;;11.50;78.20;;;;;;2375161;56;21494;-53
2022/12/26 13:51:56;;;;;;;7.78;2.40;;;11.40;77.00;;;;;;2374984;56;21055;-50
2022/12/26 13:54:26;;;;;;;3.42;1.87;;;11.40;76.20;;;;;;2373140;56;21158;-53
2022/12/26 13:57:32;;;;;;;5.60;2.62;;;11.40;76.50;;;;;;2415546;52;21135;-52
2022/12/26 14:00:39;;;;;;;3.37;2.28;;;11.40;76.90;;;;;;2373861;56;21566;-49
2022/12/26 14:03:31;;;;;;;6.57;1.40;;;11.30;76.30;;;;;;2373687;56;21610;-53
2022/12/26 14:06:15;;;;;;;4.97;0.90;;;11.30;75.90;;;;;;2374355;56;22396;-54
2022/12/26 14:08:47;;;;;;;;;;;11.20;75.70;;;;;;2377395;56;21558;-50
2022/12/26 14:11:31;;;;;;;3.35;1.00;;;11.20;75.90;;;;;;2372412;56;20385;-49
2022/12/26 14:14:10;;;;;;;4.25;1.25;;;11.00;75.80;;;;;;2374280;56;21121;-53
2022/12/26 14:16:46;;;;;;;3.72;1.00;;;10.90;76.50;;;;;;2529026;52;21015;-51
2022/12/26 14:19:28;;;;;;;3.78;1.17;;;10.80;76.90;;;;;;2372953;56;21552;-54
2022/12/26 14:22:05;;;;;;;10.30;1.85;;;10.70;78.00;;;;;;2373496;56;21054;-49
2022/12/26 14:24:49;;;;;;;5.75;1.20;;;10.70;77.20;;;;;;2373029;56;22130;-54
2022/12/26 14:27:32;;;;;;;10.00;1.50;;;10.60;77.40;;;;;;2405612;52;22188;-49
2022/12/26 14:30:18;;;;;;;7.97;1.80;;;10.60;77.30;;;;;;2391768;53;21134;-50
2022/12/26 14:33:16;;;;;;;8.40;1.40;;;10.60;77.20;;;;;;2428910;53;21653;-48
2022/12/26 14:38:47;;;;;;;12.10;1.60;;;10.50;77.10;;;;;;2320212;57;22744;-47
2022/12/26 14:44:16;;;;;;;6.15;1.55;;;10.40;77.60;;;;;;2591898;53;21511;-48
2022/12/26 14:47:00;;;;;;;9.77;1.80;;;10.40;78.00;;;;;;2345982;57;21069;-47
2022/12/26 14:49:38;;;;;;;8.48;1.23;;;10.30;78.30;;;;;;2345020;57;21592;-49
2022/12/26 14:52:32;;;;;;;5.40;1.50;;;10.20;78.00;;;;;;2393535;52;21050;-52
2022/12/26 14:55:35;;;;;;;6.18;1.70;;;10.10;78.30;;;;;;2374981;56;21526;-49
2022/12/26 14:58:45;;;;;;;10.25;2.05;;;10.10;78.30;;;;;;2373746;56;21641;-49
2022/12/26 15:01:46;;;;;;;7.20;1.52;;;10.00;79.30;;;;;;2366321;56;21129;-48
2022/12/26 15:04:31;;;;;;;9.45;3.08;;;10.00;78.40;;;;;;2344306;57;21591;-48
2022/12/26 15:07:20;;;;;;;11.52;1.83;;;9.90;78.60;;;;;;2345753;57;21524;-52
2022/12/26 15:10:11;;;;;;;9.57;1.62;;;9.80;78.90;;;;;;2345298;57;21552;-49
2022/12/26 15:13:09;;;;;;;6.75;1.25;;;9.70;79.00;;;;;;2346129;57;22198;-48
2022/12/26 15:15:51;;;;;;;9.00;1.95;;;9.70;78.60;;;;;;2346643;57;21132;-50
2022/12/26 15:18:47;;;;;;;7.70;1.55;;;9.60;78.60;;;;;;2346891;57;21612;-53
2022/12/26 15:21:32;;;;;;;7.80;1.73;;;9.60;78.90;;;;;;2347205;57;21048;-52
2022/12/26 15:24:16;;;;;;;7.53;1.80;;;9.60;78.50;;;;;;2346387;57;21052;-49
2022/12/26 15:27:00;;;;;;;11.23;3.22;;;9.50;78.30;;;;;;2346312;57;22160;-49
2022/12/26 15:29:46;;;;;;;;;;;9.40;78.10;;;;;;2350953;57;21068;-49
2022/12/26 15:32:19;;;;;;;13.50;2.17;;;9.50;78.60;;;;;;2346616;57;20331;-48
2022/12/26 15:34:56;;;;;;;9.40;2.50;;;9.40;77.10;;;;;;2344638;57;21096;-52
2022/12/26 15:37:37;;;;;;;8.77;1.67;;;9.30;77.30;;;;;;2347868;57;21069;-47